createdAt,value
2023-02-05T00:01:33.131Z,100.00
2023-02-05T00:04:00.018Z,100.00
2023-02-05T00:06:27.083Z,100.00
2023-02-05T00:08:53.708Z,100.00
2023-02-05T00:11:20.344Z,100.00
2023-02-05T00:13:46.953Z,100.00
2023-02-05T00:16:19.371Z,100.00
2023-02-05T00:18:46.472Z,100.00
2023-02-05T00:21:14.077Z,100.00
2023-02-05T00:23:41.447Z,100.00
2023-02-05T00:26:08.744Z,100.00
2023-02-05T00:28:36.678Z,100.00
2023-02-05T00:31:11.850Z,100.00
2023-02-05T00:33:39.042Z,100.00
2023-02-05T00:36:06.162Z,100.00
2023-02-05T00:38:32.978Z,100.00
2023-02-05T00:41:00.085Z,100.00
2023-02-05T00:43:26.688Z,100.00
2023-02-05T00:45:53.528Z,100.00
2023-02-05T00:48:20.365Z,100.00
2023-02-05T00:50:52.683Z,100.00
2023-02-05T00:53:22.047Z,100.00
2023-02-05T00:55:48.694Z,100.00
2023-02-05T00:58:15.774Z,100.00
2023-02-05T01:00:43.375Z,100.00
2023-02-05T01:03:10.290Z,100.00
2023-02-05T01:05:37.825Z,100.00
2023-02-05T01:08:05.491Z,100.00
2023-02-05T01:10:32.602Z,100.00
2023-02-05T01:12:59.883Z,100.00
2023-02-05T01:15:26.544Z,100.00
2023-02-05T01:17:53.149Z,100.00
2023-02-05T01:20:20.529Z,100.00
2023-02-05T01:22:47.456Z,100.00
2023-02-05T01:25:14.288Z,100.00
2023-02-05T01:27:41.240Z,100.00
2023-02-05T01:30:11.747Z,100.00
2023-02-05T01:32:40.544Z,100.00
2023-02-05T01:35:08.523Z,100.00
2023-02-05T01:37:35.314Z,100.00
2023-02-05T01:40:08.790Z,100.00
2023-02-05T01:42:35.416Z,100.00
2023-02-05T01:45:29.768Z,100.00
2023-02-05T01:48:00.871Z,100.00
2023-02-05T01:50:43.487Z,100.00
2023-02-05T01:53:12.523Z,100.00
2023-02-05T01:55:45.801Z,100.00
2023-02-05T01:58:12.603Z,100.00
2023-02-05T02:00:39.262Z,100.00
2023-02-05T02:03:06.165Z,100.00
2023-02-05T02:05:33.047Z,100.00
2023-02-05T02:07:59.995Z,100.00
2023-02-05T02:10:29.359Z,100.00
2023-02-05T02:12:56.236Z,100.00
2023-02-05T02:15:25.923Z,100.00
2023-02-05T02:17:56.011Z,100.00
2023-02-05T02:20:26.699Z,100.00
2023-02-05T02:22:56.228Z,100.00
2023-02-05T02:25:49.768Z,100.00
2023-02-05T02:28:27.125Z,100.00
2023-02-05T02:31:04.824Z,100.00
2023-02-05T02:33:31.379Z,100.00
2023-02-05T02:36:01.268Z,100.00
2023-02-05T02:38:36.725Z,100.00
2023-02-05T02:41:27.304Z,100.00
2023-02-05T02:43:58.200Z,100.00
2023-02-05T02:46:31.002Z,100.00
2023-02-05T02:49:01.627Z,100.00
2023-02-05T02:51:29.283Z,100.00
2023-02-05T02:53:58.253Z,100.00
2023-02-05T02:56:26.933Z,100.00
2023-02-05T02:58:57.016Z,100.00
2023-02-05T03:01:25.057Z,100.00
2023-02-05T03:03:58.745Z,100.00
2023-02-05T03:06:26.592Z,100.00
2023-02-05T03:09:04.962Z,100.00
2023-02-05T03:11:31.820Z,100.00
2023-02-05T03:13:58.637Z,100.00
2023-02-05T03:16:26.828Z,100.00
2023-02-05T03:18:54.192Z,100.00
2023-02-05T03:21:30.352Z,100.00
2023-02-05T03:23:57.113Z,100.00
2023-02-05T03:26:35.169Z,100.00
2023-02-05T03:29:04.197Z,100.00
2023-02-05T03:31:47.269Z,100.00
2023-02-05T03:34:26.032Z,100.00
2023-02-05T03:37:16.870Z,100.00
2023-02-05T03:40:05.167Z,100.00
2023-02-05T03:42:40.760Z,100.00
2023-02-05T03:45:38.646Z,100.00
2023-02-05T03:48:16.182Z,100.00
2023-02-05T03:51:04.647Z,100.00
2023-02-05T03:53:39.232Z,100.00
2023-02-05T03:56:10.007Z,100.00
2023-02-05T03:58:41.193Z,100.00
2023-02-05T04:01:09.295Z,100.00
2023-02-05T04:03:36.166Z,100.00
2023-02-05T04:06:03.098Z,100.00
2023-02-05T04:08:29.720Z,100.00
2023-02-05T04:10:56.807Z,100.00
2023-02-05T04:13:26.406Z,100.00
2023-02-05T04:15:53.065Z,100.00
2023-02-05T04:18:19.643Z,100.00
2023-02-05T04:20:46.272Z,100.00
2023-02-05T04:23:12.960Z,100.00
2023-02-05T04:25:39.699Z,100.00
2023-02-05T04:28:06.831Z,100.00
2023-02-05T04:30:33.746Z,100.00
2023-02-05T04:33:00.409Z,100.00
2023-02-05T04:35:27.093Z,100.00
2023-02-05T04:37:53.711Z,100.00
2023-02-05T04:40:20.342Z,100.00
2023-02-05T04:42:47.103Z,100.00
2023-02-05T04:45:13.763Z,100.00
2023-02-05T04:47:40.394Z,100.00
2023-02-05T04:50:07.087Z,100.00
2023-02-05T04:52:33.723Z,100.00
2023-02-05T04:55:00.353Z,100.00
2023-02-05T04:57:26.982Z,100.00
2023-02-05T04:59:53.557Z,100.00
2023-02-05T05:02:20.197Z,100.00
2023-02-05T05:04:46.865Z,100.00
2023-02-05T05:07:13.476Z,100.00
2023-02-05T05:09:40.145Z,100.00
2023-02-05T05:12:06.842Z,100.00
2023-02-05T05:14:33.429Z,100.00
2023-02-05T05:17:00.163Z,100.00
2023-02-05T05:19:26.797Z,100.00
2023-02-05T05:21:53.462Z,100.00
2023-02-05T05:24:20.059Z,100.00
2023-02-05T05:26:46.697Z,100.00
2023-02-05T05:29:14.415Z,100.00
2023-02-05T05:31:41.757Z,100.00
2023-02-05T05:34:08.468Z,100.00
2023-02-05T05:36:35.192Z,100.00
2023-02-05T05:39:21.773Z,100.00
2023-02-05T05:42:06.871Z,100.00
2023-02-05T05:44:33.480Z,100.00
2023-02-05T05:47:00.090Z,100.00
2023-02-05T05:49:26.703Z,100.00
2023-02-05T05:51:53.364Z,100.00
2023-02-05T05:54:20.010Z,100.00
2023-02-05T05:56:46.719Z,100.00
2023-02-05T05:59:13.401Z,100.00
2023-02-05T06:01:40.012Z,100.00
2023-02-05T06:04:06.665Z,100.00
2023-02-05T06:06:33.713Z,100.00
2023-02-05T06:09:00.325Z,100.00
2023-02-05T06:11:27.024Z,100.00
2023-02-05T06:13:53.654Z,100.00
2023-02-05T06:16:20.320Z,100.00
2023-02-05T06:18:46.937Z,100.00
2023-02-05T06:21:13.587Z,100.00
2023-02-05T06:23:40.183Z,100.00
2023-02-05T06:26:06.817Z,100.00
2023-02-05T06:28:33.444Z,100.00
2023-02-05T06:31:00.162Z,100.00
2023-02-05T06:33:26.831Z,100.00
2023-02-05T06:35:53.431Z,100.00
2023-02-05T06:38:20.051Z,100.00
2023-02-05T06:40:48.054Z,100.00
2023-02-05T06:43:14.892Z,100.00
2023-02-05T06:45:41.534Z,100.00
2023-02-05T06:48:08.120Z,100.00
2023-02-05T06:50:34.766Z,100.00
2023-02-05T06:53:01.456Z,100.00
2023-02-05T06:55:28.085Z,100.00
2023-02-05T06:57:54.772Z,100.00
2023-02-05T07:00:21.622Z,100.00
2023-02-05T07:02:48.311Z,100.00
2023-02-05T07:05:14.976Z,100.00
2023-02-05T07:07:41.613Z,100.00
2023-02-05T07:10:08.473Z,100.00
2023-02-05T07:12:35.258Z,100.00
2023-02-05T07:15:01.901Z,100.00
2023-02-05T07:17:28.572Z,100.00
2023-02-05T07:19:55.283Z,100.00
2023-02-05T07:22:25.185Z,100.00
2023-02-05T07:24:51.796Z,100.00
2023-02-05T07:27:18.435Z,100.00
2023-02-05T07:29:45.068Z,100.00
2023-02-05T07:32:11.867Z,100.00
2023-02-05T07:34:38.617Z,100.00
2023-02-05T07:37:05.294Z,100.00
2023-02-05T07:39:33.414Z,100.00
2023-02-05T07:42:00.940Z,100.00
2023-02-05T07:44:27.619Z,100.00
2023-02-05T07:46:54.407Z,100.00
2023-02-05T07:49:21.067Z,100.00
2023-02-05T07:51:47.819Z,100.00
2023-02-05T07:54:15.631Z,100.00
2023-02-05T07:56:42.425Z,100.00
2023-02-05T07:59:09.471Z,100.00
2023-02-05T08:01:36.104Z,100.00
2023-02-05T08:04:02.794Z,100.00
2023-02-05T08:06:29.441Z,100.00
2023-02-05T08:08:56.187Z,100.00
2023-02-05T08:11:23.002Z,100.00
2023-02-05T08:13:49.614Z,100.00
2023-02-05T08:16:16.524Z,100.00
2023-02-05T08:18:47.412Z,100.00
2023-02-05T08:21:14.071Z,100.00
2023-02-05T08:23:40.685Z,100.00
2023-02-05T08:26:07.320Z,100.00
2023-02-05T08:28:33.989Z,100.00
2023-02-05T08:31:00.664Z,100.00
2023-02-05T08:33:27.351Z,100.00
2023-02-05T08:35:54.142Z,100.00
2023-02-05T08:38:20.813Z,100.00
2023-02-05T08:40:47.511Z,100.00
2023-02-05T08:43:14.230Z,100.00
2023-02-05T08:45:41.009Z,100.00
2023-02-05T08:48:07.751Z,100.00
2023-02-05T08:50:34.437Z,100.00
2023-02-05T08:53:01.131Z,100.00
2023-02-05T08:55:27.806Z,100.00
2023-02-05T08:57:55.609Z,100.00
2023-02-05T09:00:22.347Z,100.00
2023-02-05T09:02:49.059Z,100.00
2023-02-05T09:05:15.701Z,100.00
2023-02-05T09:07:42.514Z,100.00
2023-02-05T09:10:11.340Z,100.00
2023-02-05T09:12:38.322Z,100.00
2023-02-05T09:15:06.222Z,100.00
2023-02-05T09:17:32.960Z,100.00
2023-02-05T09:19:59.708Z,100.00
2023-02-05T09:22:26.409Z,100.00
2023-02-05T09:24:53.037Z,100.00
2023-02-05T09:27:19.677Z,100.00
2023-02-05T09:29:46.377Z,100.00
2023-02-05T09:32:13.004Z,100.00
2023-02-05T09:34:39.808Z,100.00
2023-02-05T09:37:06.469Z,100.00
2023-02-05T09:42:29.106Z,100.00
2023-02-05T09:45:06.914Z,100.00
2023-02-05T09:47:39.631Z,100.00
2023-02-05T09:50:27.748Z,100.00
2023-02-05T09:53:06.136Z,100.00
2023-02-05T09:55:36.395Z,100.00
2023-02-05T09:58:07.310Z,100.00
2023-02-05T10:00:46.910Z,100.00
2023-02-05T10:03:50.554Z,100.00
2023-02-05T10:06:21.246Z,100.00
2023-02-05T10:09:04.261Z,100.00
2023-02-05T10:11:40.983Z,100.00
2023-02-05T10:14:23.094Z,100.00
2023-02-05T10:16:55.859Z,100.00
2023-02-05T10:19:37.990Z,100.00
2023-02-05T10:22:25.681Z,100.00
2023-02-05T10:25:20.308Z,100.00
2023-02-05T10:27:58.129Z,100.00
2023-02-05T10:30:34.884Z,100.00
2023-02-05T10:33:08.520Z,100.00
2023-02-05T10:35:57.497Z,97.75
2023-02-05T10:38:26.018Z,93.74
2023-02-05T10:41:00.472Z,95.80
2023-02-05T10:43:40.825Z,95.29
2023-02-05T10:46:13.503Z,93.99
2023-02-05T10:49:00.874Z,92.65
2023-02-05T10:51:42.979Z,92.67
2023-02-05T10:54:19.842Z,91.57
2023-02-05T10:56:47.615Z,89.41
2023-02-05T10:59:39.156Z,89.43
2023-02-05T11:02:11.568Z,88.82
2023-02-05T11:04:47.735Z,90.50
2023-02-05T11:07:26.304Z,90.23
2023-02-05T11:09:53.138Z,88.13
2023-02-05T11:12:32.762Z,89.47
2023-02-05T11:15:01.299Z,88.95
2023-02-05T11:17:34.030Z,78.55
2023-02-05T11:20:05.284Z,77.96
2023-02-05T11:22:36.878Z,77.17
2023-02-05T11:25:27.186Z,77.29
2023-02-05T11:28:04.441Z,74.99
2023-02-05T11:30:49.949Z,73.55
2023-02-05T11:33:21.742Z,73.50
2023-02-05T11:35:54.853Z,75.85
2023-02-05T11:38:46.256Z,76.37
2023-02-05T11:41:15.430Z,75.37
2023-02-05T11:43:51.330Z,75.80
2023-02-05T11:46:23.428Z,78.29
2023-02-05T11:49:01.590Z,75.74
2023-02-05T11:51:44.651Z,75.54
2023-02-05T11:54:31.821Z,71.85
2023-02-05T11:57:30.158Z,75.69
2023-02-05T12:00:02.661Z,75.25
2023-02-05T12:02:32.859Z,71.06
2023-02-05T12:05:11.826Z,76.05
2023-02-05T12:07:53.784Z,75.72
2023-02-05T12:10:29.726Z,75.31
2023-02-05T12:13:04.564Z,74.44
2023-02-05T12:15:44.962Z,74.68
2023-02-05T12:18:39.081Z,77.85
2023-02-05T12:21:35.171Z,77.46
2023-02-05T12:24:16.603Z,75.81
2023-02-05T12:26:44.835Z,76.04
2023-02-05T12:29:37.748Z,74.76
2023-02-05T12:32:24.190Z,76.52
2023-02-05T12:35:16.708Z,74.42
2023-02-05T12:38:21.089Z,75.54
2023-02-05T12:41:22.998Z,72.86
2023-02-05T12:43:50.448Z,72.37
2023-02-05T12:46:38.740Z,69.79
2023-02-05T12:49:24.258Z,74.05
2023-02-05T12:52:12.241Z,73.51
2023-02-05T12:55:03.972Z,73.57
2023-02-05T12:57:38.847Z,73.90
2023-02-05T13:00:25.188Z,73.85
2023-02-05T13:02:55.296Z,72.95
2023-02-05T13:05:30.267Z,72.68
2023-02-05T13:08:08.886Z,72.16
2023-02-05T13:10:49.265Z,70.06
2023-02-05T13:13:19.884Z,70.91
2023-02-05T13:15:52.215Z,72.64
2023-02-05T13:18:23.810Z,73.18
2023-02-05T13:21:14.838Z,72.98
2023-02-05T13:24:02.246Z,70.34
2023-02-05T13:26:51.845Z,70.36
2023-02-05T13:29:19.964Z,67.70
2023-02-05T13:31:52.539Z,66.49
2023-02-05T13:34:19.580Z,66.49
2023-02-05T13:36:58.524Z,66.80
2023-02-05T13:39:37.172Z,66.41
2023-02-05T13:42:30.071Z,67.96
2023-02-05T13:45:38.691Z,68.10
2023-02-05T13:48:19.202Z,69.66
2023-02-05T13:51:14.107Z,72.93
2023-02-05T13:53:56.020Z,67.46
2023-02-05T13:56:44.275Z,68.92
2023-02-05T13:59:17.105Z,70.39
2023-02-05T14:01:50.856Z,71.37
2023-02-05T14:04:23.484Z,72.75
2023-02-05T14:07:06.652Z,71.54
2023-02-05T14:09:44.897Z,72.41
2023-02-05T14:12:21.186Z,71.21
2023-02-05T14:15:16.802Z,68.72
2023-02-05T14:17:53.428Z,70.55
2023-02-05T14:20:26.149Z,71.25
2023-02-05T14:22:54.579Z,71.47
2023-02-05T14:25:39.535Z,71.25
2023-02-05T14:28:35.486Z,70.12
2023-02-05T14:31:04.057Z,70.59
2023-02-05T14:33:32.015Z,70.04
2023-02-05T14:36:22.733Z,71.31
2023-02-05T14:39:02.836Z,72.97
2023-02-05T14:41:51.635Z,71.21
2023-02-05T14:44:21.043Z,70.17
2023-02-05T14:47:06.638Z,72.04
2023-02-05T14:49:33.290Z,73.81
2023-02-05T14:52:07.480Z,73.92
2023-02-05T14:54:47.073Z,71.35
2023-02-05T14:57:28.924Z,71.21
2023-02-05T15:00:03.891Z,72.59
2023-02-05T15:02:59.964Z,71.99
2023-02-05T15:05:35.171Z,73.54
2023-02-05T15:08:11.927Z,75.05
2023-02-05T15:10:58.553Z,73.07
2023-02-05T15:13:26.367Z,75.02
2023-02-05T15:16:11.735Z,74.77
2023-02-05T15:18:43.598Z,76.48
2023-02-05T15:21:25.008Z,78.75
2023-02-05T15:23:57.421Z,79.51
2023-02-05T15:26:30.511Z,81.35
2023-02-05T15:29:12.858Z,81.31
2023-02-05T15:31:51.738Z,82.30
2023-02-05T15:34:21.753Z,83.11
2023-02-05T15:37:00.967Z,84.54
2023-02-05T15:39:51.964Z,84.56
2023-02-05T15:42:28.085Z,83.97
2023-02-05T15:44:55.010Z,84.33
2023-02-05T15:47:23.741Z,86.50
2023-02-05T15:49:54.331Z,88.08
2023-02-05T15:52:23.534Z,89.11
2023-02-05T15:54:50.837Z,90.55
2023-02-05T15:57:21.165Z,92.04
2023-02-05T15:59:48.203Z,92.79
2023-02-05T16:02:18.880Z,93.84
2023-02-05T16:04:53.239Z,94.79
2023-02-05T16:07:22.137Z,94.17
2023-02-05T16:09:53.644Z,94.03
2023-02-05T16:12:20.975Z,96.18
2023-02-05T16:15:01.040Z,97.03
2023-02-05T16:17:32.634Z,98.46
2023-02-05T16:20:12.891Z,99.96
2023-02-05T16:22:45.456Z,100.00
2023-02-05T16:25:20.572Z,100.00
2023-02-05T16:27:49.461Z,100.00
2023-02-05T16:30:43.733Z,100.00
2023-02-05T16:33:21.214Z,100.00
2023-02-05T16:35:48.513Z,100.00
2023-02-05T16:38:17.322Z,100.00
2023-02-05T16:40:46.262Z,100.00
2023-02-05T16:43:31.391Z,100.00
2023-02-05T16:46:07.399Z,100.00
2023-02-05T16:48:37.002Z,100.00
2023-02-05T16:51:04.296Z,100.00
2023-02-05T16:53:33.265Z,100.00
2023-02-05T16:56:02.252Z,100.00
2023-02-05T16:58:36.772Z,100.00
2023-02-05T17:01:04.338Z,100.00
2023-02-05T17:03:35.444Z,100.00
2023-02-05T17:06:03.630Z,100.00
2023-02-05T17:08:33.410Z,100.00
2023-02-05T17:11:02.345Z,100.00
2023-02-05T17:13:42.899Z,100.00
2023-02-05T17:16:30.546Z,100.00
2023-02-05T17:18:59.513Z,100.00
2023-02-05T17:21:34.262Z,100.00
2023-02-05T17:24:03.818Z,100.00
2023-02-05T17:26:37.439Z,100.00
2023-02-05T17:29:06.252Z,100.00
2023-02-05T17:31:36.121Z,100.00
2023-02-05T17:34:04.244Z,100.00
2023-02-05T17:36:30.885Z,100.00
2023-02-05T17:38:57.541Z,100.00
2023-02-05T17:41:45.112Z,100.00
2023-02-05T17:44:15.715Z,100.00
2023-02-05T17:46:43.454Z,100.00
2023-02-05T17:49:10.351Z,100.00
2023-02-05T17:51:41.585Z,100.00
2023-02-05T17:54:17.236Z,100.00
2023-02-05T17:56:44.991Z,100.00
2023-02-05T17:59:14.501Z,100.00
2023-02-05T18:01:41.164Z,100.00
2023-02-05T18:04:07.883Z,100.00
2023-02-05T18:06:35.230Z,100.00
2023-02-05T18:09:02.038Z,100.00
2023-02-05T18:11:28.871Z,100.00
2023-02-05T18:13:55.528Z,100.00
2023-02-05T18:16:22.292Z,100.00
2023-02-05T18:18:49.128Z,100.00
2023-02-05T18:21:15.872Z,100.00
2023-02-05T18:23:42.847Z,100.00
2023-02-05T18:26:09.853Z,100.00
2023-02-05T18:28:36.515Z,100.00
2023-02-05T18:31:06.309Z,100.00
2023-02-05T18:33:33.305Z,100.00
2023-02-05T18:36:07.091Z,100.00
2023-02-05T18:38:34.533Z,100.00
2023-02-05T18:41:15.724Z,100.00
2023-02-05T18:43:42.691Z,100.00
2023-02-05T18:46:14.764Z,100.00
2023-02-05T18:48:41.699Z,100.00
2023-02-05T18:51:10.562Z,100.00
2023-02-05T18:53:39.170Z,100.00
2023-02-05T18:56:08.188Z,100.00
2023-02-05T18:58:35.894Z,100.00
2023-02-05T19:01:12.331Z,100.00
2023-02-05T19:03:40.824Z,100.00
2023-02-05T19:06:09.010Z,100.00
2023-02-05T19:08:36.103Z,100.00
2023-02-05T19:11:07.622Z,100.00
2023-02-05T19:13:35.790Z,100.00
2023-02-05T19:16:08.571Z,100.00
2023-02-05T19:18:35.311Z,100.00
2023-02-05T19:21:06.779Z,100.00
2023-02-05T19:23:34.325Z,100.00
2023-02-05T19:26:10.113Z,100.00
2023-02-05T19:28:37.326Z,100.00
2023-02-05T19:31:09.353Z,100.00
2023-02-05T19:33:37.184Z,100.00
2023-02-05T19:36:05.614Z,100.00
2023-02-05T19:38:35.161Z,100.00
2023-02-05T19:41:07.047Z,100.00
2023-02-05T19:43:34.724Z,100.00
2023-02-05T19:46:05.865Z,100.00
2023-02-05T19:48:32.755Z,100.00
2023-02-05T19:51:06.866Z,100.00
2023-02-05T19:53:34.372Z,100.00
2023-02-05T19:56:06.846Z,100.00
2023-02-05T19:58:34.933Z,100.00
2023-02-05T20:01:01.573Z,100.00
2023-02-05T20:03:31.284Z,100.00
2023-02-05T20:06:01.037Z,100.00
2023-02-05T20:08:29.358Z,100.00
2023-02-05T20:11:00.300Z,100.00
2023-02-05T20:13:28.364Z,100.00
2023-02-05T20:15:55.425Z,100.00
2023-02-05T20:18:22.987Z,100.00
2023-02-05T20:20:49.756Z,100.00
2023-02-05T20:23:16.650Z,100.00
2023-02-05T20:25:43.619Z,100.00
2023-02-05T20:28:10.352Z,100.00
2023-02-05T20:31:09.396Z,100.00
2023-02-05T20:33:36.085Z,100.00
2023-02-05T20:36:08.115Z,100.00
2023-02-05T20:38:34.777Z,100.00
2023-02-05T20:41:14.403Z,100.00
2023-02-05T20:43:41.045Z,100.00
2023-02-05T20:46:08.196Z,100.00
2023-02-05T20:48:34.878Z,100.00
2023-02-05T20:51:22.618Z,100.00
2023-02-05T20:53:49.450Z,100.00
2023-02-05T20:56:18.223Z,100.00
2023-02-05T20:58:44.926Z,100.00
2023-02-05T21:01:22.965Z,100.00
2023-02-05T21:03:51.770Z,100.00
2023-02-05T21:06:20.511Z,100.00
2023-02-05T21:08:48.433Z,100.00
2023-02-05T21:11:16.009Z,100.00
2023-02-05T21:13:44.518Z,100.00
2023-02-05T21:16:15.410Z,100.00
2023-02-05T21:18:44.226Z,100.00
2023-02-05T21:21:13.278Z,100.00
2023-02-05T21:23:40.032Z,100.00
2023-02-05T21:26:07.168Z,100.00
2023-02-05T21:28:33.855Z,100.00
2023-02-05T21:31:05.486Z,100.00
2023-02-05T21:33:32.203Z,100.00
2023-02-05T21:36:08.480Z,100.00
2023-02-05T21:38:36.706Z,100.00
2023-02-05T21:41:11.867Z,100.00
2023-02-05T21:43:38.551Z,100.00
2023-02-05T21:46:09.411Z,100.00
2023-02-05T21:48:36.244Z,100.00
2023-02-05T21:51:12.728Z,100.00
2023-02-05T21:53:39.900Z,100.00
2023-02-05T21:56:10.225Z,100.00
2023-02-05T21:58:43.566Z,100.00
2023-02-05T22:01:18.306Z,100.00
2023-02-05T22:03:57.592Z,100.00
2023-02-05T22:06:25.894Z,100.00
2023-02-05T22:08:53.110Z,100.00
2023-02-05T22:11:21.684Z,100.00
2023-02-05T22:13:50.600Z,100.00
2023-02-05T22:16:28.080Z,100.00
2023-02-05T22:18:55.596Z,100.00
2023-02-05T22:21:30.002Z,100.00
2023-02-05T22:23:59.184Z,100.00
2023-02-05T22:26:35.457Z,100.00
2023-02-05T22:29:04.632Z,100.00
2023-02-05T22:31:31.466Z,100.00
2023-02-05T22:34:00.639Z,100.00
2023-02-05T22:36:32.509Z,100.00
2023-02-05T22:38:59.325Z,100.00
2023-02-05T22:41:28.763Z,100.00
2023-02-05T22:43:57.062Z,100.00
2023-02-05T22:46:26.028Z,100.00
2023-02-05T22:48:53.665Z,100.00
2023-02-05T22:51:23.006Z,100.00
2023-02-05T22:53:54.968Z,100.00
2023-02-05T22:56:21.913Z,100.00
2023-02-05T22:58:49.469Z,100.00
2023-02-05T23:01:20.595Z,100.00
2023-02-05T23:03:51.794Z,100.00
2023-02-05T23:06:24.571Z,100.00
2023-02-05T23:09:07.622Z,100.00
2023-02-05T23:11:34.967Z,100.00
2023-02-05T23:14:05.638Z,100.00
2023-02-05T23:16:34.853Z,100.00
2023-02-05T23:19:07.563Z,100.00
2023-02-05T23:21:35.560Z,100.00
2023-02-05T23:24:02.428Z,100.00
2023-02-05T23:26:32.155Z,100.00
2023-02-05T23:28:59.197Z,100.00
2023-02-05T23:31:29.331Z,100.00
2023-02-05T23:33:55.967Z,100.00
2023-02-05T23:36:28.418Z,100.00
2023-02-05T23:38:58.834Z,100.00
2023-02-05T23:41:37.258Z,100.00
2023-02-05T23:44:14.070Z,100.00
2023-02-05T23:46:43.318Z,100.00
2023-02-05T23:49:10.455Z,100.00
2023-02-05T23:51:37.717Z,100.00
2023-02-05T23:54:05.376Z,100.00
2023-02-05T23:56:32.112Z,100.00
2023-02-05T23:58:59.252Z,100.00
